Time;durP1;ratioP1;P1;durP2;ratioP2;P2;SDS_P1;SDS_P2;PMS_P1;PMS_P2;Temp;Humidity;BMP_temperature;BMP_pressure;BME280_temperature;BME280_humidity;BME280_pressure;Samples;Min_cycle;Max_cycle;Signal;HPM_P1;HPM_P2
2021/10/25 00:00:40;;;;;;;14.33;8.25;;;;;;;5.94;75.80;101175.30;2817105;82;21039;-78
2021/10/25 00:04:42;;;;;;;10.00;5.75;;;;;;;5.84;76.45;101169.13;2820146;83;21019;-78
2021/10/25 00:08:44;;;;;;;6.58;4.20;;;;;;;5.80;76.74;101164.92;2751315;84;21653;-76
2021/10/25 00:12:45;;;;;;;9.98;5.03;;;;;;;5.76;77.48;101173.05;2807920;82;21028;-78
2021/10/25 00:16:48;;;;;;;8.83;5.22;;;;;;;5.83;76.79;101162.13;2794332;82;21082;-75
2021/10/25 00:20:49;;;;;;;23.00;12.40;;;;;;;5.80;77.37;101164.08;2783947;83;21654;-77
2021/10/25 00:24:52;;;;;;;7.08;3.77;;;;;;;5.79;77.45;101164.53;2811673;82;21145;-77
2021/10/25 00:28:53;;;;;;;4.00;3.60;;;;;;;5.81;77.07;101158.71;2809123;83;21051;-81
2021/10/25 00:32:55;;;;;;;9.45;3.60;;;;;;;5.98;76.66;101155.72;2796494;83;22284;-77
2021/10/25 00:37:02;;;;;;;3.90;3.33;;;;;;;6.18;76.11;101152.60;2818034;81;21075;-71
2021/10/25 00:41:00;;;;;;;6.10;3.58;;;;;;;6.33;75.38;101153.61;2832394;82;20983;-76
2021/10/25 00:45:02;;;;;;;6.20;3.98;;;;;;;6.37;75.25;101150.75;2840365;82;21539;-76
2021/10/25 00:49:04;;;;;;;5.25;2.85;;;;;;;6.38;75.03;101144.53;2843939;82;21023;-74
2021/10/25 00:53:06;;;;;;;9.93;3.47;;;;;;;6.34;74.99;101143.43;2849421;81;21004;-77
2021/10/25 00:57:08;;;;;;;5.55;2.60;;;;;;;6.36;75.30;101146.40;2851553;82;21010;-80
2021/10/25 01:01:10;;;;;;;7.70;3.30;;;;;;;6.48;74.90;101134.80;2836989;82;21043;-79
2021/10/25 01:05:12;;;;;;;6.08;2.47;;;;;;;6.63;74.35;101135.34;2834420;82;21008;-78
2021/10/25 01:09:15;;;;;;;3.80;3.00;;;;;;;6.80;73.35;101121.71;2733719;85;21307;-77
2021/10/25 01:13:17;;;;;;;3.05;2.37;;;;;;;6.90;72.94;101117.66;2848369;82;21639;-78
2021/10/25 01:17:19;;;;;;;6.05;2.17;;;;;;;7.07;72.51;101111.45;2838548;82;21019;-76
2021/10/25 01:21:20;;;;;;;4.65;2.37;;;;;;;7.08;72.06;101107.86;2747908;85;21329;-79
2021/10/25 01:25:23;;;;;;;4.10;2.22;;;;;;;7.11;71.94;101095.79;2750710;85;21052;-80
2021/10/25 01:29:25;;;;;;;1.87;1.47;;;;;;;7.14;71.57;101093.45;2762803;85;21071;-77
2021/10/25 01:33:32;;;;;;;3.52;2.72;;;;;;;7.25;71.04;101095.03;2725083;84;21074;-74
2021/10/25 01:37:33;;;;;;;;;;;;;;;7.43;70.94;101085.69;2744099;85;21661;-73
2021/10/25 01:41:35;;;;;;;3.75;1.92;;;;;;;7.60;70.15;101073.30;2738731;85;20134;-76
2021/10/25 01:45:37;;;;;;;3.40;2.60;;;;;;;7.63;70.19;101077.95;2763075;84;21033;-76
2021/10/25 01:49:38;;;;;;;3.35;2.08;;;;;;;7.65;70.01;101080.50;2745064;84;21051;-78
2021/10/25 01:53:40;;;;;;;3.37;2.80;;;;;;;7.55;70.36;101069.12;2744613;85;21525;-81
2021/10/25 01:57:42;;;;;;;6.50;3.17;;;;;;;7.50;70.33;101061.92;2781032;83;20999;-76
2021/10/25 02:01:45;;;;;;;4.75;2.00;;;;;;;7.45;70.67;101061.79;2775294;83;21123;-76
2021/10/25 02:05:47;;;;;;;5.83;2.30;;;;;;;7.52;70.70;101049.45;2728659;85;21165;-76
2021/10/25 02:09:48;;;;;;;6.28;2.45;;;;;;;7.74;70.50;101053.51;2849303;82;21039;-79
2021/10/25 02:13:50;;;;;;;7.40;2.22;;;;;;;7.86;70.08;101053.27;2805617;81;21631;-73
2021/10/25 02:17:52;;;;;;;4.22;2.35;;;;;;;7.84;69.65;101045.88;2817196;81;21138;-76
2021/10/25 02:21:54;;;;;;;6.35;2.35;;;;;;;7.88;69.89;101039.45;2826674;81;21067;-78
2021/10/25 02:25:56;;;;;;;6.08;3.33;;;;;;;7.84;69.57;101042.74;2845728;81;21122;-74
2021/10/25 02:29:57;;;;;;;4.90;2.98;;;;;;;7.73;69.73;101039.89;2847760;81;21102;-81
2021/10/25 02:33:59;;;;;;;1.80;1.70;;;;;;;7.53;70.28;101037.91;2851127;81;21063;-76
2021/10/25 02:38:01;;;;;;;4.28;2.37;;;;;;;7.38;70.73;101033.48;2849992;82;21106;-75
2021/10/25 02:42:02;;;;;;;7.72;2.70;;;;;;;7.28;70.98;101037.12;2847875;82;21291;-78
2021/10/25 02:46:04;;;;;;;4.92;2.30;;;;;;;7.17;71.18;101030.23;2842256;82;21022;-78
2021/10/25 02:50:07;;;;;;;5.95;2.72;;;;;;;7.08;71.46;101027.17;2846282;81;21484;-74
2021/10/25 02:54:09;;;;;;;8.30;2.80;;;;;;;7.07;71.75;101025.92;2855937;81;21054;-76
2021/10/25 02:58:10;;;;;;;4.25;2.67;;;;;;;7.04;71.78;101019.03;2853873;82;21043;-77
2021/10/25 03:02:12;;;;;;;6.58;3.25;;;;;;;7.05;71.96;101017.22;2862278;81;21075;-75
2021/10/25 03:06:14;;;;;;;10.18;3.58;;;;;;;6.91;72.33;101006.95;2850030;81;21580;-74
2021/10/25 03:10:16;;;;;;;3.65;2.55;;;;;;;6.96;71.96;100997.42;2809002;81;21062;-76
2021/10/25 03:14:17;;;;;;;10.63;3.02;;;;;;;6.89;72.33;100998.25;2803175;83;21069;-75
2021/10/25 03:18:21;;;;;;;6.80;5.00;;;;;;;7.07;71.89;100991.08;2885509;81;21145;-68
2021/10/25 03:22:24;;;;;;;4.40;3.55;;;;;;;7.17;71.66;100990.09;2838604;82;21246;-70
2021/10/25 03:26:26;;;;;;;4.35;3.85;;;;;;;7.01;72.08;100988.78;2831510;82;21077;-71
2021/10/25 03:30:28;;;;;;;4.45;3.10;;;;;;;7.06;72.05;100989.83;2849809;82;21454;-69
2021/10/25 03:34:30;;;;;;;3.77;2.58;;;;;;;7.02;71.94;100992.27;2842401;82;21073;-71
2021/10/25 03:38:35;;;;;;;5.78;2.42;;;;;;;6.93;71.79;100989.66;2847519;82;21153;-72
2021/10/25 03:42:48;;;;;;;3.15;1.95;;;;;;;6.94;71.59;100993.55;2860749;82;21071;-72
2021/10/25 03:46:44;;;;;;;2.45;1.80;;;;;;;6.85;71.88;100990.08;2844099;82;21071;-75
2021/10/25 03:50:44;;;;;;;2.47;1.92;;;;;;;6.88;71.71;100993.03;2855503;82;21021;-69
2021/10/25 03:54:51;;;;;;;3.87;2.60;;;;;;;7.01;71.40;100994.07;2795620;84;21086;-72
2021/10/25 04:28:58;;;;;;;9.03;2.98;;;;;;;7.99;67.75;100961.98;2805747;80;21090;-71
2021/10/25 04:33:01;;;;;;;4.03;2.80;;;;;;;8.02;67.79;100960.47;2803899;83;21040;-74
2021/10/25 04:37:02;;;;;;;2.77;1.77;;;;;;;8.08;67.79;100950.84;2789235;83;21611;-69
2021/10/25 04:41:04;;;;;;;6.00;2.52;;;;;;;8.08;67.50;100943.36;2794594;83;21030;-69
2021/10/25 04:45:06;;;;;;;5.70;3.15;;;;;;;8.12;67.49;100946.19;2747142;82;21099;-68
2021/10/25 04:49:08;;;;;;;5.00;2.47;;;;;;;8.08;67.21;100942.90;2805453;83;21023;-71
2021/10/25 04:53:11;;;;;;;5.15;2.17;;;;;;;8.07;66.99;100940.33;2831693;79;21102;-71
2021/10/25 04:57:13;;;;;;;3.00;2.27;;;;;;;8.06;66.62;100933.33;2775994;82;21062;-69
2021/10/25 05:01:14;;;;;;;19.70;3.58;;;;;;;7.99;66.54;100939.01;2831765;83;21050;-69
2021/10/25 05:05:15;;;;;;;5.05;2.90;;;;;;;8.02;66.78;100941.09;2804520;83;21070;-69
2021/10/25 05:09:17;;;;;;;4.10;2.37;;;;;;;7.95;66.96;100930.01;2823034;81;21063;-69
2021/10/25 05:13:21;;;;;;;4.42;2.70;;;;;;;7.88;67.52;100929.52;2812348;83;21080;-69
2021/10/25 05:17:23;;;;;;;6.92;3.50;;;;;;;7.88;67.98;100929.52;2824923;82;21043;-70
2021/10/25 05:21:24;;;;;;;7.55;2.85;;;;;;;7.85;68.14;100919.95;2816220;81;21051;-71
2021/10/25 05:25:26;;;;;;;6.42;3.17;;;;;;;7.97;68.17;100921.49;2809319;83;21095;-69
2021/10/25 05:29:29;;;;;;;13.48;3.40;;;;;;;7.95;68.20;100926.03;2800698;82;21062;-70
2021/10/25 05:33:30;;;;;;;4.75;3.22;;;;;;;7.91;68.52;100917.41;2799776;84;21078;-69
2021/10/25 05:37:32;;;;;;;4.53;2.12;;;;;;;7.87;69.07;100906.62;2768772;84;21145;-70
2021/10/25 05:41:35;;;;;;;5.08;2.87;;;;;;;8.05;68.62;100923.19;2796814;84;21034;-69
2021/10/25 05:45:37;;;;;;;2.75;2.17;;;;;;;8.09;68.55;100915.91;2790892;82;21107;-69
2021/10/25 05:49:39;;;;;;;4.30;2.70;;;;;;;8.08;68.38;100917.73;2792496;83;21071;-70
2021/10/25 05:53:40;;;;;;;8.40;3.47;;;;;;;8.17;67.83;100914.12;2818130;83;21090;-69
2021/10/25 05:57:42;;;;;;;9.28;4.45;;;;;;;8.21;67.93;100918.27;2817561;82;21040;-70
2021/10/25 06:01:55;;;;;;;5.97;3.42;;;;;;;8.31;67.75;100918.09;2828032;81;21079;-69
2021/10/25 06:05:47;;;;;;;7.22;4.40;;;;;;;8.35;67.76;100905.02;2818316;82;21063;-70
2021/10/25 06:09:49;;;;;;;7.42;4.70;;;;;;;8.40;67.41;100908.23;2847696;81;21087;-70
2021/10/25 06:13:54;;;;;;;7.53;2.98;;;;;;;8.51;66.91;100916.03;2819807;81;21067;-69
2021/10/25 06:17:58;;;;;;;14.30;4.25;;;;;;;8.63;66.22;100910.42;2832241;80;21066;-70
2021/10/25 06:22:00;;;;;;;7.00;3.52;;;;;;;8.75;66.10;100914.95;2841321;82;21041;-70
2021/10/25 06:26:03;;;;;;;2.75;2.35;;;;;;;8.90;65.74;100902.95;2827955;82;21134;-70
2021/10/25 06:30:06;;;;;;;3.65;2.12;;;;;;;8.99;65.07;100907.17;2847760;81;21015;-70
2021/10/25 06:34:11;;;;;;;11.10;3.45;;;;;;;9.10;64.84;100900.33;2795739;82;21067;-69
2021/10/25 06:38:12;;;;;;;9.53;3.40;;;;;;;9.24;64.17;100900.27;2799900;84;21036;-71
2021/10/25 06:42:14;;;;;;;5.92;3.20;;;;;;;9.36;64.36;100895.08;2785550;84;21099;-69
2021/10/25 06:46:16;;;;;;;7.33;3.05;;;;;;;9.45;63.75;100883.86;2789218;84;21103;-71
2021/10/25 06:50:23;;;;;;;5.05;2.90;;;;;;;9.58;62.86;100879.39;2823222;82;21020;-71
2021/10/25 06:54:25;;;;;;;6.10;3.62;;;;;;;9.71;63.09;100882.55;2777868;84;21011;-71
2021/10/25 06:58:26;;;;;;;4.83;3.35;;;;;;;9.83;62.26;100882.17;2790116;83;21096;-71
2021/10/25 07:02:28;;;;;;;18.60;3.25;;;;;;;9.94;61.23;100884.08;2740942;85;21035;-69
2021/10/25 07:06:32;;;;;;;5.87;2.55;;;;;;;10.11;61.50;100885.55;2718465;84;21055;-70
2021/10/25 07:10:36;;;;;;;3.12;2.67;;;;;;;10.21;60.28;100889.27;2727935;86;21540;-70
2021/10/25 07:14:39;;;;;;;3.15;2.77;;;;;;;10.33;59.80;100891.53;2731236;85;21075;-72
2021/10/25 07:19:36;;;;;;;5.35;2.80;;;;;;;10.51;59.56;100892.54;2740595;84;21048;-70
2021/10/25 08:05:51;;;;;;;5.25;2.47;;;;;;;12.07;54.66;100863.17;2802045;82;21050;-71
2021/10/25 08:09:54;;;;;;;8.20;3.55;;;;;;;12.12;54.75;100871.68;2762020;84;21066;-71
2021/10/25 08:17:59;;;;;;;7.00;4.47;;;;;;;12.35;54.09;100868.98;2819960;79;21103;-68
2021/10/25 08:22:07;;;;;;;3.67;2.35;;;;;;;12.52;53.99;100872.95;2757719;84;21146;-70
2021/10/25 08:26:09;;;;;;;11.12;4.28;;;;;;;12.53;53.93;100875.52;2758161;84;21085;-69
2021/10/25 08:30:12;;;;;;;6.33;3.37;;;;;;;12.69;54.33;100879.11;2763497;83;21079;-70
2021/10/25 08:42:55;;;;;;;7.70;3.08;;;;;;;12.98;52.84;100874.55;2743903;83;21119;-73
2021/10/25 08:46:58;;;;;;;8.03;3.55;;;;;;;13.09;52.97;100867.45;2759977;83;21126;-70
2021/10/25 08:51:00;;;;;;;5.08;2.80;;;;;;;13.25;52.96;100853.17;2743649;84;21158;-70
2021/10/25 08:55:06;;;;;;;6.42;3.25;;;;;;;13.27;52.54;100867.24;2741373;85;21123;-70
2021/10/25 08:59:09;;;;;;;3.67;2.77;;;;;;;13.33;52.06;100864.55;2747359;82;21135;-71
2021/10/25 09:03:12;;;;;;;7.40;3.60;;;;;;;13.51;52.60;100862.16;2735075;84;21065;-70
2021/10/25 09:07:14;;;;;;;10.08;3.60;;;;;;;13.52;51.93;100855.83;2765381;80;21130;-70
2021/10/25 09:11:18;;;;;;;4.20;3.15;;;;;;;13.53;51.56;100856.69;2809728;82;21130;-70
2021/10/25 09:20:02;;;;;;;4.92;2.98;;;;;;;13.76;52.27;100854.73;2862280;79;21092;-70
2021/10/25 09:24:06;;;;;;;6.05;2.95;;;;;;;13.80;51.32;100848.13;2852083;82;21087;-70
2021/10/25 09:28:25;;;;;;;6.08;3.45;;;;;;;13.93;52.78;100857.26;2854082;81;21117;-71
2021/10/25 09:32:34;;;;;;;3.98;2.45;;;;;;;14.07;51.82;100848.52;2849579;82;21082;-73
2021/10/25 09:36:39;;;;;;;5.08;3.30;;;;;;;14.09;51.95;100851.41;2856473;78;21488;-71
2021/10/25 09:49:30;;;;;;;7.53;3.42;;;;;;;14.54;52.41;100843.44;2789672;84;21117;-70
2021/10/25 09:53:47;;;;;;;6.12;2.65;;;;;;;14.63;51.15;100843.09;2785363;80;21120;-70
2021/10/25 10:01:47;;;;;;;4.67;3.37;;;;;;;14.64;50.30;100854.16;2859174;82;21069;-69
2021/10/25 10:05:50;;;;;;;7.00;2.98;;;;;;;14.65;50.06;100850.50;2866892;80;21074;-72
2021/10/25 10:09:52;;;;;;;16.90;2.75;;;;;;;14.72;50.59;100858.86;2857976;81;21046;-71
2021/10/25 10:13:54;;;;;;;3.25;2.50;;;;;;;14.67;49.85;100855.73;2853548;82;20979;-72
2021/10/25 10:18:03;;;;;;;7.12;3.27;;;;;;;14.68;49.80;100858.25;2849539;82;21075;-70
2021/10/25 10:22:07;;;;;;;6.25;3.25;;;;;;;14.75;49.37;100853.22;2852080;80;21023;-71
2021/10/25 10:26:15;;;;;;;10.00;3.37;;;;;;;14.71;49.07;100847.28;2839563;81;21024;-70
2021/10/25 10:30:17;;;;;;;4.45;2.60;;;;;;;14.83;49.71;100847.17;2842394;81;21078;-70
2021/10/25 10:34:19;;;;;;;4.78;2.77;;;;;;;14.82;49.26;100838.27;2905114;79;21066;-71
2021/10/25 10:38:31;;;;;;;5.62;3.12;;;;;;;14.81;48.99;100837.92;2922404;80;20987;-71
2021/10/25 10:42:35;;;;;;;14.90;3.75;;;;;;;14.91;49.24;100831.73;2931226;80;20992;-71
2021/10/25 10:47:01;;;;;;;6.50;3.05;;;;;;;14.90;49.09;100826.86;2927862;80;21078;-71
2021/10/25 10:51:15;;;;;;;6.03;2.62;;;;;;;14.89;49.59;100829.70;2923025;80;21078;-69
2021/10/25 10:55:25;;;;;;;7.08;3.05;;;;;;;14.95;49.00;100825.97;2931226;79;21066;-69
2021/10/25 10:59:35;;;;;;;3.42;3.02;;;;;;;14.99;48.43;100828.70;2916577;80;21035;-73
2021/10/25 11:03:36;;;;;;;11.65;3.87;;;;;;;15.01;48.63;100826.38;2922783;80;21109;-71
2021/10/25 11:07:41;;;;;;;4.97;3.45;;;;;;;15.01;47.87;100815.16;2915539;80;21137;-70
2021/10/25 11:11:46;;;;;;;7.25;3.50;;;;;;;14.98;47.86;100809.61;2935161;80;21097;-69
2021/10/25 11:20:26;;;;;;;7.78;3.50;;;;;;;14.99;48.13;100803.26;2933038;80;21034;-70
2021/10/25 11:24:28;;;;;;;4.50;2.60;;;;;;;15.00;49.55;100802.75;2920363;79;21606;-71
2021/10/25 11:28:29;;;;;;;25.05;7.58;;;;;;;15.02;48.45;100797.27;2930729;80;21019;-70
2021/10/25 11:32:31;;;;;;;4.67;2.80;;;;;;;15.02;48.78;100794.07;2922575;80;21070;-72
2021/10/25 11:36:35;;;;;;;10.20;4.25;;;;;;;15.07;49.34;100801.69;2924649;79;21019;-71
2021/10/25 11:40:38;;;;;;;10.43;3.17;;;;;;;14.92;48.91;100794.08;2918463;80;20987;-70
2021/10/25 11:44:43;;;;;;;17.73;4.90;;;;;;;14.94;49.09;100790.80;2911511;80;21295;-71
2021/10/25 11:48:59;;;;;;;16.47;6.37;;;;;;;15.05;49.55;100796.49;2927887;80;21018;-69
2021/10/25 11:53:09;;;;;;;16.25;8.70;;;;;;;15.10;49.18;100794.70;2925368;80;21038;-71
2021/10/25 11:57:12;;;;;;;11.00;6.22;;;;;;;15.18;49.07;100793.51;2924472;80;21027;-70
2021/10/25 12:01:14;;;;;;;6.35;3.67;;;;;;;15.24;50.07;100790.75;2926490;80;21027;-69
2021/10/25 12:05:24;;;;;;;5.87;3.42;;;;;;;15.23;49.56;100794.39;2935211;80;30634;-70
2021/10/25 12:09:38;;;;;;;9.40;4.58;;;;;;;15.24;49.63;100779.52;2924818;79;21007;-70
2021/10/25 12:13:39;;;;;;;5.12;3.50;;;;;;;15.16;49.38;100782.09;2928189;80;21015;-71
2021/10/25 12:17:41;;;;;;;4.67;3.02;;;;;;;15.15;49.80;100779.06;2928751;80;21095;-70
2021/10/25 12:21:43;;;;;;;7.00;3.52;;;;;;;15.32;51.23;100777.94;2931162;80;21062;-71
2021/10/25 12:25:59;;;;;;;4.17;3.72;;;;;;;15.38;49.99;100766.66;2921360;78;21094;-71
2021/10/25 12:30:14;;;;;;;7.78;4.00;;;;;;;15.46;50.35;100764.59;2933566;80;21102;-71
2021/10/25 12:34:16;;;;;;;7.15;4.05;;;;;;;15.47;49.90;100769.80;2924946;80;21074;-69
2021/10/25 12:38:20;;;;;;;9.23;4.78;;;;;;;15.60;49.88;100761.93;2938779;80;21130;-71
2021/10/25 12:42:26;;;;;;;8.45;5.00;;;;;;;15.64;50.31;100761.98;2919355;79;21089;-70
2021/10/25 12:46:33;;;;;;;11.15;4.75;;;;;;;15.54;49.41;100753.48;2918936;79;21015;-69
2021/10/25 12:50:35;;;;;;;8.07;5.00;;;;;;;15.59;49.39;100744.16;2921888;80;21267;-70
2021/10/25 12:54:39;;;;;;;8.58;4.95;;;;;;;15.58;50.18;100739.27;2905217;79;21102;-70
2021/10/25 12:58:41;;;;;;;20.20;7.15;;;;;;;15.55;49.71;100736.41;2918642;80;21056;-70
2021/10/25 13:02:46;;;;;;;7.80;4.17;;;;;;;15.73;50.11;100742.34;2920408;79;21055;-69
2021/10/25 13:06:50;;;;;;;13.48;4.85;;;;;;;15.83;49.16;100736.41;2929710;80;21036;-70
2021/10/25 13:10:51;;;;;;;10.55;5.35;;;;;;;15.83;48.92;100725.68;2930637;80;21021;-69
2021/10/25 13:14:55;;;;;;;15.60;4.58;;;;;;;15.79;48.43;100720.75;2912503;80;21047;-70
2021/10/25 13:18:58;;;;;;;11.15;5.17;;;;;;;15.80;48.58;100714.39;2924090;79;21074;-72
2021/10/25 13:23:03;;;;;;;6.17;3.37;;;;;;;15.58;48.39;100708.95;2924251;80;21043;-70
2021/10/25 13:27:06;;;;;;;6.03;3.87;;;;;;;15.50;48.75;100713.71;2911685;80;21023;-71
2021/10/25 13:31:08;;;;;;;12.98;5.00;;;;;;;15.49;49.07;100715.53;2923695;80;21024;-71
2021/10/25 13:35:11;;;;;;;10.50;4.97;;;;;;;15.60;49.78;100720.38;2890750;80;21015;-69
2021/10/25 13:39:16;;;;;;;7.97;5.22;;;;;;;15.60;49.05;100718.52;2919827;80;21012;-71
2021/10/25 13:43:17;;;;;;;8.85;3.72;;;;;;;15.65;48.78;100716.25;2940324;80;21037;-70
2021/10/25 13:47:19;;;;;;;12.25;6.60;;;;;;;15.68;49.37;100705.70;2921485;80;21071;-70
2021/10/25 13:51:21;;;;;;;7.33;4.67;;;;;;;15.71;48.58;100705.41;2930576;80;21019;-74
2021/10/25 13:55:23;;;;;;;15.63;5.90;;;;;;;15.76;48.98;100698.27;2849644;81;21038;-75
2021/10/25 13:59:25;;;;;;;10.85;5.35;;;;;;;15.63;49.08;100705.32;2837339;82;21055;-79
2021/10/25 14:03:26;;;;;;;27.15;7.97;;;;;;;15.55;49.63;100706.06;2801224;83;21129;-74
2021/10/25 14:07:32;;;;;;;9.93;6.62;;;;;;;15.35;50.22;100703.97;2828740;82;21139;-76
2021/10/25 14:11:41;;;;;;;7.37;4.17;;;;;;;15.11;49.43;100697.25;2852522;82;21012;-73
2021/10/25 14:15:45;;;;;;;8.95;5.78;;;;;;;14.93;49.84;100696.66;2846325;81;21015;-75
2021/10/25 14:19:46;;;;;;;20.50;8.98;;;;;;;14.93;50.45;100689.14;2801816;83;21059;-73
2021/10/25 14:23:48;;;;;;;12.98;6.20;;;;;;;14.80;50.19;100690.79;2856460;81;21125;-73
2021/10/25 14:27:50;;;;;;;11.38;6.65;;;;;;;14.61;49.93;100688.45;2936583;80;21070;-76
2021/10/25 14:31:52;;;;;;;19.30;8.25;;;;;;;14.51;50.48;100688.94;2930952;80;21478;-76
2021/10/25 14:35:55;;;;;;;12.82;6.20;;;;;;;14.40;51.06;100687.26;2851123;82;21563;-73
2021/10/25 14:39:56;;;;;;;20.72;8.00;;;;;;;14.32;51.58;100674.58;2927483;80;21101;-77
2021/10/25 14:44:03;;;;;;;12.13;5.28;;;;;;;14.25;51.51;100672.13;2915611;80;21047;-77
2021/10/25 14:56:26;;;;;;;12.98;7.75;;;;;;;13.80;52.00;100666.31;2865008;81;21075;-76
2021/10/25 15:00:28;;;;;;;11.15;8.48;;;;;;;13.69;52.32;100665.94;2886824;81;21078;-73
2021/10/25 15:04:30;;;;;;;16.05;7.75;;;;;;;13.54;52.27;100667.30;2881038;82;21000;-75
2021/10/25 15:08:32;;;;;;;10.13;6.30;;;;;;;13.47;52.78;100667.48;2877300;81;21061;-75
2021/10/25 15:12:33;;;;;;;25.48;9.20;;;;;;;13.27;52.76;100664.20;2829963;83;21063;-70
2021/10/25 15:16:36;;;;;;;17.65;8.48;;;;;;;13.13;53.25;100660.07;2863931;81;21102;-70
2021/10/25 15:20:37;;;;;;;12.40;8.50;;;;;;;13.09;53.26;100656.46;2865560;81;21071;-76
2021/10/25 15:24:46;;;;;;;11.55;7.65;;;;;;;12.94;53.62;100656.80;2802053;83;21069;-73
2021/10/25 15:28:45;;;;;;;;;;;;;;;12.82;53.98;100653.36;2840185;83;21046;-76
2021/10/25 15:32:46;;;;;;;15.85;8.55;;;;;;;12.69;54.38;100645.56;2863871;82;20151;-76
2021/10/25 15:36:48;;;;;;;16.87;9.30;;;;;;;12.48;54.70;100640.25;2869443;82;21010;-76
2021/10/25 15:40:50;;;;;;;15.28;8.25;;;;;;;12.32;55.25;100651.34;2860529;82;21043;-73
2021/10/25 15:44:52;;;;;;;12.80;7.15;;;;;;;12.15;55.73;100635.42;2802482;83;21094;-78
2021/10/25 15:48:54;;;;;;;12.95;7.55;;;;;;;11.99;55.97;100639.82;2939461;80;21114;-76
2021/10/25 15:53:05;;;;;;;29.87;10.55;;;;;;;12.00;55.97;100644.17;2933076;80;21042;-75
2021/10/25 15:57:02;;;;;;;10.95;9.45;;;;;;;12.02;55.76;100643.59;2930835;80;21027;-78
2021/10/25 16:01:05;;;;;;;29.07;20.17;;;;;;;11.96;55.78;100648.91;2936854;80;21066;-78
2021/10/25 16:05:07;;;;;;;23.35;12.70;;;;;;;11.87;56.39;100640.31;2945116;80;21089;-76
2021/10/25 16:09:10;;;;;;;28.77;12.55;;;;;;;11.75;56.96;100638.16;2939541;80;21026;-77
2021/10/25 16:13:12;;;;;;;19.98;10.10;;;;;;;11.51;57.78;100640.52;2929406;80;21623;-76
2021/10/25 16:17:15;;;;;;;18.42;10.78;;;;;;;11.41;57.57;100642.23;2939588;80;21065;-74
2021/10/25 16:21:17;;;;;;;68.25;43.75;;;;;;;11.39;57.54;100644.16;2933672;80;21102;-79
2021/10/25 16:25:19;;;;;;;90.55;54.77;;;;;;;11.27;58.38;100640.66;2935480;80;21114;-74
2021/10/25 16:29:21;;;;;;;38.45;21.70;;;;;;;11.19;58.18;100643.92;2936265;80;21042;-79
2021/10/25 16:33:23;;;;;;;19.40;14.68;;;;;;;11.16;58.32;100652.66;2935216;80;21038;-76
2021/10/25 16:37:24;;;;;;;17.57;9.30;;;;;;;11.15;58.09;100645.13;2936920;80;21014;-73
2021/10/25 16:41:26;;;;;;;23.22;12.53;;;;;;;11.17;58.14;100655.17;2941304;80;21022;-74
2021/10/25 16:45:28;;;;;;;23.67;10.85;;;;;;;11.06;59.96;100653.86;2942338;80;21031;-74
2021/10/25 16:49:34;;;;;;;21.33;12.07;;;;;;;10.93;59.05;100649.98;2929360;80;21320;-72
2021/10/25 17:06:40;;;;;;;34.73;10.48;;;;;;;10.47;60.57;100661.83;2837064;82;21084;-73
2021/10/25 17:10:26;;;;;;;18.00;9.33;;;;;;;10.38;60.53;100660.68;2835221;82;21119;-67
2021/10/25 17:14:28;;;;;;;16.77;8.25;;;;;;;10.33;60.89;100672.65;2841878;82;21098;-71
2021/10/25 17:18:30;;;;;;;17.07;9.20;;;;;;;10.24;61.30;100679.00;2819362;82;21060;-68
2021/10/25 17:22:31;;;;;;;45.45;14.60;;;;;;;10.19;61.52;100685.62;2924554;80;21140;-72
2021/10/25 17:26:38;;;;;;;26.95;12.03;;;;;;;10.08;62.35;100671.33;2925468;79;21067;-72
2021/10/25 17:30:38;;;;;;;33.75;17.12;;;;;;;10.08;61.54;100675.31;2871192;80;21086;-68
2021/10/25 17:34:40;;;;;;;23.02;10.80;;;;;;;10.17;61.28;100678.23;2837298;82;21064;-69
2021/10/25 17:38:42;;;;;;;14.53;10.08;;;;;;;10.21;61.25;100675.71;2873043;82;21014;-69
2021/10/25 17:42:51;;;;;;;12.23;8.68;;;;;;;10.19;61.39;100678.50;2864697;81;21068;-69
2021/10/25 17:46:47;;;;;;;12.75;8.73;;;;;;;10.13;61.27;100671.83;2851338;82;21009;-69
2021/10/25 17:50:50;;;;;;;12.20;7.37;;;;;;;10.09;61.22;100674.81;2925099;80;21055;-68
2021/10/25 17:54:52;;;;;;;12.43;7.53;;;;;;;10.05;61.31;100676.88;2921858;80;21011;-72
2021/10/25 17:58:54;;;;;;;12.10;7.08;;;;;;;10.05;61.45;100681.32;2925402;80;21003;-72
2021/10/25 18:02:59;;;;;;;13.62;8.83;;;;;;;10.03;61.44;100684.58;2928871;80;21083;-73
2021/10/25 18:07:00;;;;;;;19.70;10.80;;;;;;;10.00;62.03;100675.01;2933370;80;21023;-69
2021/10/25 18:11:02;;;;;;;26.02;14.25;;;;;;;9.94;62.07;100675.00;2921627;80;21909;-67
2021/10/25 18:15:04;;;;;;;21.97;15.50;;;;;;;9.88;62.24;100675.92;2926022;79;21075;-74
2021/10/25 18:19:06;;;;;;;42.83;18.77;;;;;;;9.84;62.73;100676.62;2933800;80;21169;-70
2021/10/25 18:23:11;;;;;;;34.83;16.60;;;;;;;9.79;62.69;100674.28;2932938;79;21038;-70
2021/10/25 18:27:13;;;;;;;23.85;15.35;;;;;;;9.81;62.59;100680.33;2932963;80;21122;-67
2021/10/25 18:31:14;;;;;;;34.35;13.65;;;;;;;9.83;62.33;100681.56;2860121;80;21078;-70
2021/10/25 18:35:16;;;;;;;26.80;13.72;;;;;;;9.86;62.25;100677.35;2854770;81;21051;-74
2021/10/25 18:39:18;;;;;;;36.25;17.67;;;;;;;9.85;62.31;100677.84;2844326;82;21058;-70
2021/10/25 18:43:19;;;;;;;36.70;20.97;;;;;;;9.78;62.47;100667.77;2874227;81;20999;-68
2021/10/25 18:47:21;;;;;;;36.83;19.48;;;;;;;9.74;62.55;100676.44;2813842;83;21084;-69
2021/10/25 18:51:27;;;;;;;23.05;16.17;;;;;;;9.69;62.60;100679.41;2769514;83;21063;-68
2021/10/25 18:55:28;;;;;;;33.53;16.17;;;;;;;9.66;62.85;100674.33;2779300;83;21020;-68
2021/10/25 18:59:30;;;;;;;21.20;14.05;;;;;;;9.56;62.99;100668.83;2823419;82;21709;-71
2021/10/25 19:03:31;;;;;;;21.10;13.85;;;;;;;9.51;63.09;100673.63;2856131;81;21101;-70
2021/10/25 19:07:33;;;;;;;23.50;13.60;;;;;;;9.47;63.07;100680.13;2854136;82;21099;-71
2021/10/25 19:11:37;;;;;;;25.95;15.70;;;;;;;9.45;63.01;100679.39;2841559;82;21054;-69
2021/10/25 19:15:38;;;;;;;35.40;20.12;;;;;;;9.41;63.38;100677.87;2851160;80;21044;-72
2021/10/25 19:19:44;;;;;;;16.30;11.10;;;;;;;9.34;63.64;100679.28;2855745;80;21081;-65
2021/10/25 19:23:46;;;;;;;17.77;7.55;;;;;;;9.22;63.92;100684.48;2839631;81;21126;-68
2021/10/25 19:27:48;;;;;;;9.25;6.47;;;;;;;9.24;63.96;100683.06;2833320;82;21067;-69
2021/10/25 19:31:51;;;;;;;12.60;5.05;;;;;;;9.24;63.99;100677.75;2848752;80;21052;-69
2021/10/25 19:35:53;;;;;;;8.05;6.55;;;;;;;9.29;64.12;100679.59;2856132;82;21056;-69
2021/10/25 19:39:54;;;;;;;26.48;12.55;;;;;;;9.36;63.72;100672.05;2859875;81;21014;-69
2021/10/25 19:43:56;;;;;;;21.48;13.03;;;;;;;9.41;63.68;100672.57;2844743;81;21475;-68
2021/10/25 19:47:58;;;;;;;16.52;11.48;;;;;;;9.43;63.49;100670.65;2848885;81;21082;-69
2021/10/25 19:52:02;;;;;;;9.90;5.92;;;;;;;9.41;63.65;100664.60;2892258;80;21641;-69
2021/10/25 19:56:04;;;;;;;10.95;5.28;;;;;;;9.41;63.34;100661.95;2885774;81;21078;-72
2021/10/25 20:00:11;;;;;;;5.95;4.30;;;;;;;9.43;63.37;100664.88;2894414;78;21023;-72
2021/10/25 20:04:14;;;;;;;6.47;5.03;;;;;;;9.50;63.19;100666.63;2875452;81;21120;-72
2021/10/25 20:08:17;;;;;;;10.35;8.40;;;;;;;9.58;62.82;100664.25;2887952;79;21011;-69
2021/10/25 20:12:18;;;;;;;28.07;9.30;;;;;;;9.59;63.02;100670.43;2952791;79;21015;-70
2021/10/25 20:16:20;;;;;;;15.23;7.70;;;;;;;9.58;62.77;100668.73;2949986;79;21045;-69
2021/10/25 20:20:22;;;;;;;18.27;9.88;;;;;;;9.58;62.72;100668.23;2838229;81;21027;-72
2021/10/25 20:24:23;;;;;;;15.40;9.53;;;;;;;9.58;62.62;100661.59;2893273;78;21066;-68
2021/10/25 20:28:26;;;;;;;11.63;7.28;;;;;;;9.53;62.34;100665.07;2891465;81;21113;-72
2021/10/25 20:32:27;;;;;;;11.25;6.62;;;;;;;9.49;62.64;100658.28;2908856;79;21532;-69
2021/10/25 20:36:29;;;;;;;13.35;6.00;;;;;;;9.48;62.89;100665.02;2952080;79;20999;-69
2021/10/25 20:40:32;;;;;;;6.95;5.35;;;;;;;9.48;62.84;100655.27;2950196;79;21405;-72
2021/10/25 20:44:33;;;;;;;9.93;6.35;;;;;;;9.48;62.94;100647.76;2950988;79;21070;-68
2021/10/25 20:48:40;;;;;;;8.65;5.67;;;;;;;9.43;62.99;100647.62;2944405;79;21050;-69
2021/10/25 20:52:43;;;;;;;8.35;5.50;;;;;;;9.46;63.08;100646.56;2950532;79;21241;-69
2021/10/25 20:56:45;;;;;;;13.13;7.58;;;;;;;9.46;63.02;100651.01;2953358;79;20979;-69